createdAt,value
2017-12-13T00:00:53.502Z,99.90
2017-12-13T00:03:22.156Z,99.90
2017-12-13T00:05:50.356Z,99.90
2017-12-13T00:08:18.677Z,99.90
2017-12-13T00:10:46.908Z,99.90
2017-12-13T00:13:15.115Z,99.90
2017-12-13T00:15:44.097Z,99.90
2017-12-13T00:18:17.084Z,99.90
2017-12-13T00:20:46.052Z,99.90
2017-12-13T00:23:14.071Z,99.90
2017-12-13T00:25:42.159Z,99.90
2017-12-13T00:28:10.731Z,99.90
2017-12-13T00:30:39.201Z,99.90
2017-12-13T00:33:08.005Z,99.90
2017-12-13T00:35:36.466Z,99.90
2017-12-13T00:38:05.728Z,99.90
2017-12-13T00:40:34.162Z,99.90
2017-12-13T00:43:04.500Z,99.90
2017-12-13T00:45:32.711Z,99.90
2017-12-13T00:48:01.518Z,99.90
2017-12-13T00:50:30.082Z,99.90
2017-12-13T00:52:58.295Z,99.90
2017-12-13T00:55:27.260Z,99.90
2017-12-13T00:57:57.336Z,99.90
2017-12-13T01:00:25.822Z,99.90
2017-12-13T01:02:54.734Z,99.90
2017-12-13T01:05:23.289Z,99.90
2017-12-13T01:07:52.686Z,99.90
2017-12-13T01:10:21.494Z,99.90
2017-12-13T01:12:49.642Z,99.90
2017-12-13T01:15:19.764Z,99.90
2017-12-13T01:17:48.559Z,99.90
2017-12-13T01:20:17.128Z,99.90
2017-12-13T01:22:47.264Z,99.90
2017-12-13T01:25:16.200Z,99.90
2017-12-13T01:27:44.834Z,99.90
2017-12-13T01:30:13.727Z,99.90
2017-12-13T01:32:42.651Z,99.90
2017-12-13T01:35:11.351Z,99.90
2017-12-13T01:37:39.726Z,99.90
2017-12-13T01:40:08.158Z,99.90
2017-12-13T01:42:37.844Z,99.90
2017-12-13T01:45:06.683Z,99.90
2017-12-13T01:47:35.490Z,99.90
2017-12-13T01:50:04.099Z,99.90
2017-12-13T01:52:32.768Z,99.90
2017-12-13T01:55:02.251Z,99.90
2017-12-13T01:57:30.873Z,99.90
2017-12-13T01:59:59.770Z,99.90
2017-12-13T02:02:27.843Z,99.90
2017-12-13T02:04:56.570Z,99.90
2017-12-13T02:07:24.910Z,99.90
2017-12-13T02:09:56.055Z,99.90
2017-12-13T02:12:24.428Z,99.90
2017-12-13T02:14:53.228Z,99.90
2017-12-13T02:17:22.180Z,99.90
2017-12-13T02:19:53.152Z,99.90
2017-12-13T02:22:21.389Z,99.90
2017-12-13T02:24:50.334Z,99.90
2017-12-13T02:27:18.738Z,99.90
2017-12-13T02:29:46.762Z,99.90
2017-12-13T02:32:14.775Z,99.90
2017-12-13T02:34:42.948Z,99.90
2017-12-13T02:37:10.967Z,99.90
2017-12-13T02:39:39.011Z,99.90
2017-12-13T02:42:07.167Z,99.90
2017-12-13T02:44:35.228Z,99.90
2017-12-13T02:47:03.235Z,99.90
2017-12-13T02:49:32.114Z,99.90
2017-12-13T02:52:00.145Z,99.90
2017-12-13T02:54:28.373Z,99.90
2017-12-13T02:56:56.593Z,99.90
2017-12-13T02:59:24.765Z,99.90
2017-12-13T03:01:52.833Z,99.90
2017-12-13T03:04:20.986Z,99.90
2017-12-13T03:06:49.892Z,99.90
2017-12-13T03:09:18.013Z,99.90
2017-12-13T03:11:46.335Z,99.90
2017-12-13T03:14:15.107Z,99.90
2017-12-13T03:16:43.188Z,99.90
2017-12-13T03:19:12.059Z,99.90
2017-12-13T03:21:40.176Z,99.90
2017-12-13T03:24:08.198Z,99.90
2017-12-13T03:26:36.347Z,99.90
2017-12-13T03:29:04.412Z,99.90
2017-12-13T03:31:32.438Z,99.90
2017-12-13T03:34:01.335Z,99.90
2017-12-13T03:36:30.136Z,99.90
2017-12-13T03:38:58.890Z,99.90
2017-12-13T03:41:27.047Z,99.90
2017-12-13T03:43:55.063Z,99.90
2017-12-13T03:59:16.671Z,99.90
2017-12-13T04:01:44.792Z,99.90
2017-12-13T04:04:12.864Z,99.90
2017-12-13T04:06:41.051Z,99.90
2017-12-13T04:09:09.123Z,99.90
2017-12-13T04:11:37.133Z,99.90
2017-12-13T04:14:05.408Z,99.90
2017-12-13T04:16:34.224Z,99.90
2017-12-13T04:19:03.024Z,99.90
2017-12-13T04:21:31.208Z,99.90
2017-12-13T04:23:59.226Z,99.90
2017-12-13T04:26:27.250Z,99.90
2017-12-13T04:28:55.436Z,99.90
2017-12-13T04:31:23.509Z,99.90
2017-12-13T04:33:51.519Z,99.90
2017-12-13T04:36:19.666Z,99.90
2017-12-13T04:38:47.720Z,99.90
2017-12-13T04:41:15.746Z,99.90
2017-12-13T04:43:43.890Z,99.90
2017-12-13T04:46:11.933Z,99.90
2017-12-13T04:48:39.961Z,99.90
2017-12-13T04:51:08.140Z,99.90
2017-12-13T04:53:36.204Z,99.90
2017-12-13T04:56:04.227Z,99.90
2017-12-13T04:58:32.363Z,99.90
2017-12-13T05:01:00.438Z,99.90
2017-12-13T05:03:29.907Z,99.90
2017-12-13T05:05:58.148Z,99.90
2017-12-13T05:08:26.282Z,99.90
2017-12-13T05:10:54.445Z,99.90
2017-12-13T05:13:22.708Z,99.90
2017-12-13T05:15:50.891Z,99.90
2017-12-13T05:18:19.023Z,99.90
2017-12-13T05:20:47.221Z,99.90
2017-12-13T05:23:15.267Z,99.90
2017-12-13T05:25:44.096Z,99.90
2017-12-13T05:28:12.270Z,99.90
2017-12-13T05:30:41.116Z,99.90
2017-12-13T05:33:09.912Z,99.90
2017-12-13T05:35:38.832Z,99.90
2017-12-13T05:38:06.960Z,99.90
2017-12-13T05:40:35.751Z,99.90
2017-12-13T05:43:04.638Z,99.90
2017-12-13T05:45:32.697Z,99.90
2017-12-13T05:48:00.765Z,99.90
2017-12-13T05:50:28.932Z,99.90
2017-12-13T05:52:56.959Z,99.90
2017-12-13T05:55:25.007Z,99.90
2017-12-13T05:57:53.928Z,99.90
2017-12-13T06:00:21.988Z,99.90
2017-12-13T06:02:50.762Z,99.90
2017-12-13T06:05:19.723Z,99.90
2017-12-13T06:07:47.784Z,99.90
2017-12-13T06:10:15.799Z,99.90
2017-12-13T06:12:43.972Z,99.90
2017-12-13T06:15:12.893Z,99.90
2017-12-13T06:17:41.098Z,99.90
2017-12-13T06:20:09.509Z,99.90
2017-12-13T06:22:37.563Z,99.90
2017-12-13T06:25:05.620Z,99.90
2017-12-13T06:27:33.778Z,99.90
2017-12-13T06:30:01.840Z,99.90
2017-12-13T06:32:29.888Z,99.90
2017-12-13T06:34:58.819Z,99.90
2017-12-13T06:37:26.937Z,99.90
2017-12-13T06:39:54.967Z,99.90
2017-12-13T06:42:23.111Z,99.90
2017-12-13T06:44:51.928Z,99.90
2017-12-13T06:47:19.955Z,99.90
2017-12-13T06:49:48.136Z,99.90
2017-12-13T06:52:16.192Z,99.90
2017-12-13T06:54:44.223Z,99.40
2017-12-13T07:10:04.597Z,97.70
2017-12-13T07:12:32.631Z,97.70
2017-12-13T07:15:00.697Z,97.30
2017-12-13T07:17:28.904Z,97.40
2017-12-13T07:19:57.834Z,97.40
2017-12-13T07:22:25.851Z,97.40
2017-12-13T07:24:54.002Z,97.00
2017-12-13T07:27:22.083Z,96.20
2017-12-13T07:29:50.178Z,96.00
2017-12-13T07:32:19.156Z,95.70
2017-12-13T07:34:47.201Z,95.70
2017-12-13T07:37:15.284Z,95.60
2017-12-13T07:39:43.453Z,95.50
2017-12-13T07:42:11.500Z,95.00
2017-12-13T07:44:39.566Z,95.30
2017-12-13T07:47:07.719Z,95.10
2017-12-13T07:49:36.523Z,94.70
2017-12-13T07:52:05.283Z,94.70
2017-12-13T07:54:33.426Z,94.70
2017-12-13T07:57:01.489Z,95.30
2017-12-13T07:59:29.503Z,94.70
2017-12-13T08:01:57.737Z,94.80
2017-12-13T08:04:25.791Z,94.60
2017-12-13T08:06:53.811Z,94.40
2017-12-13T08:09:22.005Z,94.50
2017-12-13T08:11:50.858Z,94.00
2017-12-13T08:14:19.654Z,94.00
2017-12-13T08:16:47.795Z,94.00
2017-12-13T08:19:15.865Z,93.60
2017-12-13T08:21:44.150Z,93.50
2017-12-13T08:24:12.295Z,93.20
2017-12-13T08:26:41.092Z,93.30
2017-12-13T08:29:09.114Z,93.30
2017-12-13T08:31:37.269Z,93.20
2017-12-13T08:34:05.320Z,92.90
2017-12-13T08:36:33.342Z,92.60
2017-12-13T08:39:01.508Z,92.60
2017-12-13T08:41:29.540Z,92.10
2017-12-13T08:43:57.570Z,92.80
2017-12-13T08:46:25.793Z,92.20
2017-12-13T08:48:53.860Z,92.00
2017-12-13T08:51:21.895Z,91.70
2017-12-13T08:53:50.061Z,91.70
2017-12-13T08:56:18.166Z,91.70
2017-12-13T08:58:46.985Z,91.80
2017-12-13T09:01:15.175Z,91.80
2017-12-13T09:03:43.187Z,91.80
2017-12-13T09:06:11.284Z,91.70
2017-12-13T09:08:40.225Z,91.30
2017-12-13T09:11:08.364Z,91.30
2017-12-13T09:13:36.423Z,91.60
2017-12-13T09:16:05.464Z,91.40
2017-12-13T09:18:33.531Z,91.40
2017-12-13T09:21:01.556Z,91.00
2017-12-13T09:23:30.617Z,90.10
2017-12-13T09:25:58.666Z,90.10
2017-12-13T09:28:26.786Z,89.50
2017-12-13T09:30:55.708Z,89.90
2017-12-13T09:33:23.793Z,89.80
2017-12-13T09:35:51.905Z,89.30
2017-12-13T09:38:20.069Z,89.70
2017-12-13T09:40:48.155Z,89.40
2017-12-13T09:43:16.191Z,89.80
2017-12-13T09:45:44.403Z,89.40
2017-12-13T09:48:12.456Z,89.10
2017-12-13T09:50:40.541Z,89.50
2017-12-13T09:53:08.671Z,89.40
2017-12-13T09:55:36.747Z,89.60
2017-12-13T09:58:04.791Z,89.10
2017-12-13T10:00:33.849Z,86.00
2017-12-13T10:03:01.915Z,86.00
2017-12-13T10:05:30.017Z,86.50
2017-12-13T10:07:58.195Z,86.30
2017-12-13T10:10:26.231Z,86.10
2017-12-13T10:12:54.340Z,85.30
2017-12-13T10:15:22.525Z,85.20
2017-12-13T10:17:50.567Z,85.10
2017-12-13T10:20:18.653Z,87.90
2017-12-13T10:22:46.876Z,94.80
2017-12-13T10:25:15.023Z,95.60
2017-12-13T10:27:43.085Z,95.90
2017-12-13T10:30:11.235Z,95.80
2017-12-13T10:32:39.251Z,96.30
2017-12-13T10:35:08.057Z,97.00
2017-12-13T10:37:36.960Z,97.50
2017-12-13T10:40:05.008Z,97.50
2017-12-13T10:42:33.816Z,97.10
2017-12-13T10:45:01.998Z,97.10
2017-12-13T10:47:30.057Z,97.10
2017-12-13T10:49:58.835Z,97.40
2017-12-13T10:52:27.727Z,97.30
2017-12-13T10:54:56.596Z,97.10
2017-12-13T10:57:24.680Z,97.10
2017-12-13T10:59:52.888Z,97.40
2017-12-13T11:02:21.051Z,97.10
2017-12-13T11:04:49.826Z,97.00
2017-12-13T11:07:18.711Z,97.00
2017-12-13T11:09:46.767Z,97.10
2017-12-13T11:12:14.856Z,97.30
2017-12-13T11:14:43.003Z,96.40
2017-12-13T11:17:11.015Z,97.10
2017-12-13T11:19:39.829Z,96.80
2017-12-13T11:22:08.080Z,96.80
2017-12-13T11:24:36.847Z,96.00
2017-12-13T11:27:05.056Z,96.00
2017-12-13T11:29:33.952Z,96.80
2017-12-13T11:32:02.731Z,97.00
2017-12-13T11:34:31.549Z,96.90
2017-12-13T11:36:59.981Z,97.00
2017-12-13T11:39:28.016Z,97.80
2017-12-13T11:41:56.074Z,97.10
2017-12-13T11:44:24.304Z,97.50
2017-12-13T11:46:52.598Z,97.70
2017-12-13T11:49:20.732Z,97.60
2017-12-13T11:51:48.937Z,97.00
2017-12-13T11:54:17.032Z,97.60
2017-12-13T11:56:45.087Z,97.70
2017-12-13T11:59:13.954Z,96.80
2017-12-13T12:01:42.028Z,96.80
2017-12-13T12:04:10.124Z,97.00
2017-12-13T12:06:38.283Z,97.10
2017-12-13T12:09:06.369Z,97.60
2017-12-13T12:11:34.421Z,97.90
2017-12-13T12:14:02.600Z,98.10
2017-12-13T12:16:30.647Z,97.50
2017-12-13T12:18:58.744Z,97.30
2017-12-13T12:21:26.923Z,96.90
2017-12-13T12:23:54.996Z,96.60
2017-12-13T12:26:23.071Z,96.60
2017-12-13T12:28:51.405Z,96.80
2017-12-13T12:31:19.469Z,97.30
2017-12-13T12:33:47.511Z,97.60
2017-12-13T12:36:15.697Z,97.60
2017-12-13T12:38:44.479Z,97.40
2017-12-13T12:41:13.276Z,97.10
2017-12-13T12:43:42.152Z,97.20
2017-12-13T12:46:10.174Z,97.20
2017-12-13T12:48:38.228Z,97.00
2017-12-13T12:51:06.433Z,97.50
2017-12-13T12:53:34.470Z,97.80
2017-12-13T12:56:03.219Z,98.00
2017-12-13T12:58:31.491Z,98.10
2017-12-13T13:00:59.540Z,98.40
2017-12-13T13:03:27.558Z,98.70
2017-12-13T13:05:58.364Z,98.90
2017-12-13T13:08:26.371Z,99.00
2017-12-13T13:10:55.185Z,98.80
2017-12-13T13:13:23.366Z,98.80
2017-12-13T13:15:51.511Z,98.90
2017-12-13T13:18:20.509Z,98.80
2017-12-13T13:20:49.439Z,98.80
2017-12-13T13:23:17.551Z,98.80
2017-12-13T13:25:45.583Z,98.80
2017-12-13T13:28:13.987Z,98.70
2017-12-13T13:30:42.929Z,98.60
2017-12-13T13:33:11.707Z,98.40
2017-12-13T13:35:40.792Z,98.40
2017-12-13T13:38:08.926Z,98.30
2017-12-13T13:40:37.037Z,98.50
2017-12-13T13:43:05.237Z,98.30
2017-12-13T13:45:34.002Z,98.20
2017-12-13T13:48:02.165Z,98.20
2017-12-13T13:50:30.323Z,98.10
2017-12-13T13:52:58.377Z,98.10
2017-12-13T13:55:26.461Z,98.30
2017-12-13T13:57:54.761Z,98.10
2017-12-13T14:00:22.821Z,98.10
2017-12-13T14:03:02.763Z,98.10
2017-12-13T14:05:31.872Z,98.20
2017-12-13T14:08:00.029Z,98.20
2017-12-13T14:10:28.221Z,98.10
2017-12-13T14:12:56.277Z,98.00
2017-12-13T14:15:24.294Z,98.00
2017-12-13T14:17:52.484Z,98.00
2017-12-13T14:20:21.655Z,98.10
2017-12-13T14:22:49.749Z,98.10
2017-12-13T14:25:17.911Z,98.10
2017-12-13T14:27:46.026Z,98.20
2017-12-13T14:30:14.064Z,98.30
2017-12-13T14:32:43.023Z,98.20
2017-12-13T14:35:12.081Z,98.40
2017-12-13T14:37:42.111Z,98.40
2017-12-13T14:40:12.313Z,98.40
2017-12-13T14:42:40.629Z,98.20
2017-12-13T14:45:08.679Z,98.00
2017-12-13T14:47:36.869Z,97.90
2017-12-13T14:50:04.937Z,97.50
2017-12-13T14:52:33.010Z,97.30
2017-12-13T14:55:01.154Z,97.30
2017-12-13T14:57:29.911Z,97.40
2017-12-13T14:59:57.974Z,97.10
2017-12-13T15:02:26.125Z,97.20
2017-12-13T15:04:54.138Z,96.80
2017-12-13T15:07:22.191Z,96.60
2017-12-13T15:09:50.400Z,96.50
2017-12-13T15:12:18.461Z,96.50
2017-12-13T15:14:46.479Z,96.20
2017-12-13T15:17:14.672Z,96.20
2017-12-13T15:19:42.683Z,96.20
2017-12-13T15:22:10.699Z,96.30
2017-12-13T15:24:38.878Z,96.30
2017-12-13T15:27:06.899Z,96.20
2017-12-13T15:29:34.968Z,95.90
2017-12-13T15:32:03.153Z,95.70
2017-12-13T15:34:31.355Z,95.60
2017-12-13T15:37:00.160Z,95.40
2017-12-13T15:39:28.323Z,95.40
2017-12-13T15:41:57.136Z,95.30
2017-12-13T15:44:25.200Z,95.30
2017-12-13T15:46:53.343Z,95.30
2017-12-13T15:49:21.365Z,95.20
2017-12-13T15:51:49.378Z,95.10
2017-12-13T15:54:17.569Z,95.00
2017-12-13T15:56:46.368Z,95.10
2017-12-13T15:59:15.147Z,95.10
2017-12-13T16:01:44.036Z,95.00
2017-12-13T16:04:12.796Z,95.10
2017-12-13T16:06:40.827Z,94.90
2017-12-13T16:09:09.013Z,95.00
2017-12-13T16:11:37.043Z,95.00
2017-12-13T16:14:05.857Z,94.80
2017-12-13T16:16:34.063Z,94.80
2017-12-13T16:19:02.106Z,94.80
2017-12-13T16:21:30.124Z,94.60
2017-12-13T16:23:58.271Z,94.70
2017-12-13T16:26:26.329Z,94.70
2017-12-13T16:28:54.393Z,94.60
2017-12-13T16:31:23.317Z,94.70
2017-12-13T16:33:51.335Z,94.60
2017-12-13T16:36:19.564Z,94.70
2017-12-13T16:38:47.753Z,94.60
2017-12-13T16:41:15.896Z,94.40
2017-12-13T16:43:44.010Z,94.20
2017-12-13T16:46:12.183Z,94.20
2017-12-13T16:48:40.204Z,94.00
2017-12-13T16:51:09.042Z,94.00
2017-12-13T16:53:37.287Z,94.00
2017-12-13T16:56:05.425Z,93.90
2017-12-13T16:58:34.348Z,93.90
2017-12-13T17:01:03.634Z,93.80
2017-12-13T17:03:32.433Z,93.90
2017-12-13T17:06:00.532Z,93.80
2017-12-13T17:08:28.715Z,94.00
2017-12-13T17:10:56.782Z,94.00
2017-12-13T17:13:24.823Z,94.10
2017-12-13T17:15:53.730Z,94.40
2017-12-13T17:18:21.807Z,94.40
2017-12-13T17:20:49.874Z,94.50
2017-12-13T17:23:18.092Z,94.70
2017-12-13T17:25:46.176Z,94.80
2017-12-13T17:28:14.278Z,94.80
2017-12-13T17:30:43.256Z,94.90
2017-12-13T17:33:11.295Z,94.80
2017-12-13T17:35:39.343Z,94.90
2017-12-13T17:38:07.682Z,94.90
2017-12-13T17:40:35.769Z,94.90
2017-12-13T17:43:04.610Z,94.90
2017-12-13T17:45:32.858Z,94.90
2017-12-13T17:48:00.915Z,95.10
2017-12-13T17:50:29.017Z,95.10
2017-12-13T17:52:57.194Z,95.20
2017-12-13T17:55:25.280Z,95.30
2017-12-13T17:57:53.350Z,95.30
2017-12-13T18:00:21.824Z,95.30
2017-12-13T18:02:49.869Z,95.20
2017-12-13T18:05:18.720Z,95.50
2017-12-13T18:07:46.915Z,95.50
2017-12-13T18:10:15.748Z,95.50
2017-12-13T18:12:43.799Z,95.50
2017-12-13T18:15:12.735Z,95.50
2017-12-13T18:17:40.792Z,95.50
2017-12-13T18:20:08.860Z,95.70
2017-12-13T18:22:37.050Z,95.80
2017-12-13T18:25:05.124Z,95.70
2017-12-13T18:27:33.226Z,95.70
2017-12-13T18:30:01.399Z,95.80
2017-12-13T18:32:29.489Z,95.80
2017-12-13T18:34:58.308Z,95.80
2017-12-13T18:37:26.545Z,95.80
2017-12-13T18:39:54.760Z,95.80
2017-12-13T18:42:22.807Z,95.80
2017-12-13T18:44:51.730Z,96.10
2017-12-13T18:47:21.467Z,96.50
2017-12-13T19:01:25.175Z,96.80
2017-12-13T19:03:53.357Z,96.90
2017-12-13T19:06:21.452Z,96.90
2017-12-13T19:08:49.653Z,97.00
2017-12-13T19:11:18.506Z,97.20
2017-12-13T19:13:46.527Z,97.20
2017-12-13T19:16:15.471Z,97.30
2017-12-13T19:18:43.514Z,97.30
2017-12-13T19:21:11.613Z,97.40
2017-12-13T19:23:39.795Z,97.40
2017-12-13T19:26:07.908Z,97.40
2017-12-13T19:28:36.697Z,97.70
2017-12-13T19:31:05.653Z,97.60
2017-12-13T19:33:33.809Z,97.60
2017-12-13T19:36:13.011Z,97.50
2017-12-13T19:38:41.071Z,97.40
2017-12-13T19:41:09.281Z,97.40
2017-12-13T19:43:37.418Z,97.30
2017-12-13T19:46:05.451Z,97.30
2017-12-13T19:48:33.522Z,97.30
2017-12-13T19:51:01.704Z,97.20
2017-12-13T19:53:29.724Z,97.20
2017-12-13T19:55:58.533Z,97.10
2017-12-13T19:58:26.697Z,97.20
2017-12-13T20:00:55.497Z,97.10
2017-12-13T20:03:23.514Z,97.10
2017-12-13T20:05:51.669Z,97.20
2017-12-13T20:08:19.771Z,97.20
2017-12-13T20:10:47.888Z,97.10
2017-12-13T20:13:16.040Z,97.20
2017-12-13T20:15:44.807Z,97.20
2017-12-13T20:18:12.823Z,97.20
2017-12-13T20:20:40.943Z,97.20
2017-12-13T20:23:09.800Z,97.30
2017-12-13T20:25:37.861Z,97.30
2017-12-13T20:28:06.737Z,97.20
2017-12-13T20:30:35.537Z,97.30
2017-12-13T20:33:04.311Z,97.30
2017-12-13T20:35:33.178Z,97.30
2017-12-13T20:38:01.206Z,97.30
2017-12-13T20:40:29.256Z,97.20
2017-12-13T20:42:58.313Z,97.20
2017-12-13T20:45:26.374Z,97.20
2017-12-13T20:47:54.394Z,97.10
2017-12-13T20:50:23.274Z,97.10
2017-12-13T20:52:51.857Z,97.10
2017-12-13T20:55:19.900Z,96.90
2017-12-13T20:57:48.050Z,97.00
2017-12-13T21:00:16.086Z,97.00
2017-12-13T21:02:44.896Z,97.10
2017-12-13T21:05:13.056Z,97.10
2017-12-13T21:07:41.852Z,97.20
2017-12-13T21:10:10.651Z,97.30
2017-12-13T21:12:38.840Z,97.20
2017-12-13T21:15:06.885Z,97.20
2017-12-13T21:17:35.703Z,97.00
2017-12-13T21:20:03.876Z,97.00
2017-12-13T21:22:31.912Z,97.00
2017-12-13T21:24:59.984Z,97.10
2017-12-13T21:27:28.152Z,97.10
2017-12-13T21:29:56.208Z,97.10
2017-12-13T21:32:24.288Z,97.10
2017-12-13T21:34:52.440Z,97.00
2017-12-13T21:37:20.473Z,97.00
2017-12-13T21:39:48.537Z,96.90
2017-12-13T21:42:17.473Z,96.90
2017-12-13T21:44:45.653Z,96.90
2017-12-13T21:47:13.704Z,96.90
2017-12-13T21:49:41.876Z,97.00
2017-12-13T21:52:09.908Z,96.90
2017-12-13T21:54:37.929Z,96.90
2017-12-13T21:57:06.063Z,97.00
2017-12-13T21:59:34.819Z,97.10
2017-12-13T22:02:02.916Z,97.10
2017-12-13T22:04:31.110Z,97.20
2017-12-13T22:06:59.960Z,97.20
2017-12-13T22:09:28.019Z,97.30
2017-12-13T22:11:56.165Z,97.20
2017-12-13T22:14:24.167Z,97.10
2017-12-13T22:16:52.225Z,97.20
2017-12-13T22:19:20.346Z,97.30
2017-12-13T22:21:48.495Z,97.20
2017-12-13T22:24:16.548Z,97.10
2017-12-13T22:26:44.663Z,97.20
2017-12-13T22:29:12.675Z,97.30
2017-12-13T22:31:40.687Z,97.20
2017-12-13T22:34:08.851Z,97.20
2017-12-13T22:36:36.875Z,97.20
2017-12-13T22:39:05.686Z,97.30
2017-12-13T22:41:33.868Z,97.30
2017-12-13T22:44:01.938Z,97.30
2017-12-13T22:46:30.107Z,97.40
2017-12-13T22:48:58.243Z,97.50
2017-12-13T22:51:26.263Z,97.50
2017-12-13T22:53:54.289Z,97.50
2017-12-13T22:56:22.434Z,97.50
2017-12-13T22:58:50.484Z,97.50
2017-12-13T23:01:18.556Z,97.60
2017-12-13T23:03:46.773Z,97.60
2017-12-13T23:06:14.786Z,97.60
2017-12-13T23:21:32.501Z,97.20
2017-12-13T23:24:01.250Z,97.60
2017-12-13T23:26:29.368Z,97.60
2017-12-13T23:28:58.240Z,97.70
2017-12-13T23:31:26.195Z,97.70
2017-12-13T23:33:54.217Z,97.70
2017-12-13T23:36:22.354Z,97.80
2017-12-13T23:38:50.324Z,97.70
2017-12-13T23:41:18.291Z,97.80
2017-12-13T23:43:46.493Z,97.80
2017-12-13T23:46:15.243Z,97.80
2017-12-13T23:48:43.401Z,97.80
2017-12-13T23:51:11.506Z,97.80
2017-12-13T23:53:39.501Z,97.90
2017-12-13T23:56:08.245Z,98.10
2017-12-13T23:58:36.378Z,98.10
